Time;durP1;ratioP1;P1;durP2;ratioP2;P2;SDS_P1;SDS_P2;PMS_P1;PMS_P2;Temp;Humidity;BMP_temperature;BMP_pressure;BME280_temperature;BME280_humidity;BME280_pressure;Samples;Min_cycle;Max_cycle;Signal;HPM_P1;HPM_P2
2024/01/05 00:02:10;;;;;;;;;;;;;;;17.74;66.41;100267.59;7394607;19;1834;-37
2024/01/05 00:04:41;;;;;;;;;;;;;;;17.60;66.74;100266.16;7398789;19;1519;-37
2024/01/05 00:07:11;;;;;;;;;;;;;;;17.53;66.91;100262.34;7381595;19;1589;-37
2024/01/05 00:09:39;;;;;;;;;;;;;;;17.57;66.77;100258.44;7399289;19;1044;-37
2024/01/05 00:12:08;;;;;;;;;;;;;;;17.78;66.46;100253.78;7396427;19;1930;-37
2024/01/05 00:14:38;;;;;;;;;;;;;;;17.89;66.05;100260.88;7396389;19;1848;-37
2024/01/05 00:17:07;;;;;;;;;;;;;;;17.88;66.08;100248.50;7398707;19;1402;-37
2024/01/05 00:19:35;;;;;;;;;;;;;;;17.86;66.02;100258.47;7397440;19;1934;-37
2024/01/05 00:22:06;;;;;;;;;;;;;;;17.84;65.96;100265.81;7393434;19;1505;-37
2024/01/05 00:24:34;;;;;;;;;;;;;;;17.73;66.21;100279.28;7396861;19;1497;-37
2024/01/05 00:27:03;;;;;;;;;;;;;;;17.68;66.36;100272.50;7397051;19;1616;-37
2024/01/05 00:29:31;;;;;;;;;;;;;;;17.57;66.65;100302.06;7396491;19;1762;-37
2024/01/05 00:31:59;;;;;;;;;;;;;;;17.48;66.77;100279.66;7394485;19;1913;-37
2024/01/05 00:34:28;;;;;;;;;;;;;;;17.45;66.90;100295.97;7396670;19;1842;-37
2024/01/05 00:36:56;;;;;;;;;;;;;;;17.67;66.37;100318.13;7396093;19;1224;-37
2024/01/05 00:39:27;;;;;;;;;;;;;;;17.83;66.07;100313.09;7396806;19;1421;-37
2024/01/05 00:41:56;;;;;;;;;;;;;;;17.86;65.78;100307.47;7396683;19;1584;-37
2024/01/05 00:44:24;;;;;;;;;;;;;;;17.80;65.75;100299.97;7393965;19;1829;-37
2024/01/05 00:46:52;;;;;;;;;;;;;;;17.71;66.39;100303.50;7395702;19;1286;-37
2024/01/05 00:49:20;;;;;;;;;;;;;;;17.68;66.04;100327.81;7396378;19;1480;-37
2024/01/05 00:51:49;;;;;;;;;;;;;;;17.63;66.28;100320.22;7395376;19;1584;-37
2024/01/05 00:54:17;;;;;;;;;;;;;;;17.66;66.09;100313.75;7395641;19;1847;-37
2024/01/05 00:56:48;;;;;;;;;;;;;;;17.49;66.34;100308.09;7396653;19;1504;-37
2024/01/05 00:59:16;;;;;;;;;;;;;;;17.68;66.34;100311.78;7396468;19;1634;-37
2024/01/05 01:01:45;;;;;;;;;;;;;;;18.00;65.36;100303.53;7397811;19;1041;-37
2024/01/05 01:04:13;;;;;;;;;;;;;;;18.02;65.06;100319.47;7395375;19;1568;-37
2024/01/05 01:06:42;;;;;;;;;;;;;;;17.97;65.60;100327.06;7380360;19;1599;-37
2024/01/05 01:09:10;;;;;;;;;;;;;;;17.87;65.73;100314.53;7395703;19;1770;-37
2024/01/05 01:11:38;;;;;;;;;;;;;;;17.78;65.94;100320.66;7393704;19;1694;-37
2024/01/05 01:14:09;;;;;;;;;;;;;;;17.80;65.91;100313.34;7394320;19;1843;-37
2024/01/05 01:16:38;;;;;;;;;;;;;;;17.73;65.91;100325.59;7395073;19;1888;-37
2024/01/05 01:19:06;;;;;;;;;;;;;;;17.65;66.17;100320.94;7394697;19;1555;-37
2024/01/05 01:21:35;;;;;;;;;;;;;;;17.70;66.43;100312.47;7392185;19;1760;-37
2024/01/05 01:24:03;;;;;;;;;;;;;;;17.72;65.99;100320.38;7395104;19;1679;-37
2024/01/05 01:26:31;;;;;;;;;;;;;;;17.72;65.84;100309.69;7394067;19;1833;-37
2024/01/05 01:29:00;;;;;;;;;;;;;;;17.68;65.88;100309.09;7395509;19;1539;-37
2024/01/05 01:31:32;;;;;;;;;;;;;;;17.55;66.35;100297.81;7390831;19;1426;-37
2024/01/05 01:34:01;;;;;;;;;;;;;;;17.76;65.84;100322.63;7394750;19;1868;-37
2024/01/05 01:36:29;;;;;;;;;;;;;;;18.00;65.44;100326.78;7393864;19;1446;-37
2024/01/05 01:38:57;;;;;;;;;;;;;;;18.01;65.15;100312.44;7393054;19;1085;-37
2024/01/05 01:41:25;;;;;;;;;;;;;;;17.92;65.63;100332.81;7391921;19;1743;-37
2024/01/05 01:43:54;;;;;;;;;;;;;;;17.87;65.57;100325.22;7393780;19;1218;-37
2024/01/05 01:46:22;;;;;;;;;;;;;;;17.82;65.53;100322.06;7393808;19;1406;-37
2024/01/05 01:48:54;;;;;;;;;;;;;;;17.77;65.77;100339.53;7393400;19;1571;-37
2024/01/05 01:51:22;;;;;;;;;;;;;;;17.70;65.76;100328.53;7394417;19;1829;-37
2024/01/05 01:53:51;;;;;;;;;;;;;;;17.56;66.32;100343.13;7395095;19;1847;-37
2024/01/05 01:56:20;;;;;;;;;;;;;;;17.60;66.15;100333.00;7390464;19;1132;-38
2024/01/05 01:58:49;;;;;;;;;;;;;;;17.61;66.28;100348.09;7393225;19;1568;-37
2024/01/05 02:01:18;;;;;;;;;;;;;;;17.61;66.11;100346.25;7391918;19;2504;-37
2024/01/05 02:03:46;;;;;;;;;;;;;;;17.66;66.11;100349.34;7392750;19;1481;-37
2024/01/05 02:06:17;;;;;;;;;;;;;;;17.50;66.36;100376.59;7384055;19;1300;-37
2024/01/05 02:08:46;;;;;;;;;;;;;;;17.48;66.66;100367.03;7393373;19;1397;-37
2024/01/05 02:11:15;;;;;;;;;;;;;;;17.85;65.59;100364.63;7393528;19;1252;-37
2024/01/05 02:13:43;;;;;;;;;;;;;;;18.01;65.31;100353.41;7393862;19;1461;-37
2024/01/05 02:16:13;;;;;;;;;;;;;;;17.93;65.58;100368.47;7391805;19;1837;-37
2024/01/05 02:18:41;;;;;;;;;;;;;;;17.85;65.54;100371.81;7393269;19;1908;-37
2024/01/05 02:21:11;;;;;;;;;;;;;;;17.80;65.76;100377.53;7392682;19;1763;-37
2024/01/05 02:23:42;;;;;;;;;;;;;;;17.76;65.50;100376.13;7392776;19;1663;-37
2024/01/05 02:26:10;;;;;;;;;;;;;;;17.69;65.56;100386.53;7392502;19;1235;-38
2024/01/05 02:28:37;;;;;;;;;;;;;;;17.68;65.98;100395.50;7392533;19;1471;-37
2024/01/05 02:31:05;;;;;;;;;;;;;;;17.56;65.96;100418.00;7391871;19;1267;-37
2024/01/05 02:33:33;;;;;;;;;;;;;;;17.61;66.40;100413.09;7391906;19;1829;-37
2024/01/05 02:36:02;;;;;;;;;;;;;;;18.10;65.06;100405.22;7389154;19;1858;-37
2024/01/05 02:38:30;;;;;;;;;;;;;;;18.09;64.79;100404.38;7392660;19;1757;-37
2024/01/05 02:41:02;;;;;;;;;;;;;;;18.00;64.87;100423.09;7391540;19;1157;-37
2024/01/05 02:43:30;;;;;;;;;;;;;;;17.87;65.41;100415.31;7391967;19;1394;-37
2024/01/05 02:45:58;;;;;;;;;;;;;;;17.80;65.58;100414.97;7392460;19;1591;-38
2024/01/05 02:48:27;;;;;;;;;;;;;;;17.76;65.43;100405.53;7393235;19;963;-37
2024/01/05 02:50:55;;;;;;;;;;;;;;;17.62;65.75;100421.97;7391301;19;1936;-37
2024/01/05 02:53:23;;;;;;;;;;;;;;;17.50;66.12;100424.72;7392097;19;1810;-37
2024/01/05 02:55:52;;;;;;;;;;;;;;;17.56;66.26;100422.50;7389898;19;1863;-37
2024/01/05 02:58:23;;;;;;;;;;;;;;;17.60;66.19;100421.25;7392659;19;1737;-37
2024/01/05 03:00:51;;;;;;;;;;;;;;;17.64;66.21;100428.84;7391724;19;1402;-37
2024/01/05 03:03:20;;;;;;;;;;;;;;;17.64;66.07;100425.34;7391601;19;1667;-37
2024/01/05 03:05:49;;;;;;;;;;;;;;;17.58;66.11;100423.22;7390003;19;1916;-37
2024/01/05 03:08:17;;;;;;;;;;;;;;;17.49;66.33;100425.72;7375982;19;1659;-37
2024/01/05 03:10:45;;;;;;;;;;;;;;;17.63;66.19;100431.69;7393025;19;1140;-37
2024/01/05 03:13:14;;;;;;;;;;;;;;;17.87;65.64;100437.56;7391817;19;1497;-37
2024/01/05 03:15:45;;;;;;;;;;;;;;;17.87;65.62;100442.91;7389049;19;1843;-37
2024/01/05 03:18:13;;;;;;;;;;;;;;;17.78;65.48;100441.00;7389924;19;1506;-37
2024/01/05 03:20:42;;;;;;;;;;;;;;;17.74;65.84;100452.13;7389550;19;1742;-37
2024/01/05 03:23:10;;;;;;;;;;;;;;;17.73;65.67;100461.97;7391381;19;1278;-37
2024/01/05 03:25:39;;;;;;;;;;;;;;;17.61;66.17;100439.00;7390707;19;1731;-37
2024/01/05 03:28:10;;;;;;;;;;;;;;;17.56;66.10;100427.84;7391718;19;1305;-37
2024/01/05 03:30:38;;;;;;;;;;;;;;;17.61;66.35;100441.66;7391905;19;1240;-37
2024/01/05 03:33:09;;;;;;;;;;;;;;;17.61;66.24;100434.50;7391622;19;1916;-37
2024/01/05 03:35:38;;;;;;;;;;;;;;;17.65;66.14;100437.75;7389766;19;1843;-37
2024/01/05 03:38:07;;;;;;;;;;;;;;;17.56;66.38;100470.63;7391069;19;1818;-37
2024/01/05 03:40:35;;;;;;;;;;;;;;;17.60;66.21;100485.41;7392601;19;1578;-37
2024/01/05 03:43:03;;;;;;;;;;;;;;;17.82;65.74;100497.75;7390917;19;1197;-37
2024/01/05 03:45:32;;;;;;;;;;;;;;;17.99;65.08;100482.94;7391711;19;1908;-37
2024/01/05 03:48:00;;;;;;;;;;;;;;;17.97;65.23;100474.22;7389072;19;1489;-37
2024/01/05 03:50:28;;;;;;;;;;;;;;;17.83;65.78;100462.03;7391186;19;1207;-37
2024/01/05 03:52:56;;;;;;;;;;;;;;;17.78;65.68;100483.81;7389620;19;1834;-37
2024/01/05 03:55:25;;;;;;;;;;;;;;;17.76;65.84;100485.78;7388897;19;1843;-37
2024/01/05 03:57:53;;;;;;;;;;;;;;;17.67;65.91;100492.78;7389974;19;1465;-37
2024/01/05 04:00:22;;;;;;;;;;;;;;;17.49;66.42;100484.53;7389310;19;1671;-37
2024/01/05 04:02:50;;;;;;;;;;;;;;;17.77;65.84;100478.63;7387902;19;1291;-38
2024/01/05 04:05:18;;;;;;;;;;;;;;;18.44;63.78;100493.19;7390399;19;1861;-37
2024/01/05 04:07:49;;;;;;;;;;;;;;;18.78;62.86;100487.44;7374917;19;1616;-37
2024/01/05 04:10:18;;;;;;;;;;;;;;;18.72;63.06;100477.28;7391283;19;1512;-37
2024/01/05 04:12:46;;;;;;;;;;;;;;;18.51;63.47;100483.63;7390031;19;1939;-37
2024/01/05 04:15:15;;;;;;;;;;;;;;;18.28;64.23;100496.38;7386966;19;1847;-37
2024/01/05 04:17:43;;;;;;;;;;;;;;;18.18;64.71;100503.56;7389662;19;1528;-37
2024/01/05 04:20:12;;;;;;;;;;;;;;;18.18;64.67;100493.69;7394772;19;1239;-37
2024/01/05 04:22:40;;;;;;;;;;;;;;;18.30;64.49;100518.50;7397190;19;1642;-37
2024/01/05 04:25:12;;;;;;;;;;;;;;;18.26;64.50;100525.13;7397952;19;1160;-37
2024/01/05 04:27:40;;;;;;;;;;;;;;;18.19;64.97;100537.38;7398233;19;1101;-37
2024/01/05 04:30:09;;;;;;;;;;;;;;;18.03;65.15;100529.84;7396827;19;1830;-37
2024/01/05 04:32:38;;;;;;;;;;;;;;;18.13;65.10;100545.94;7397054;19;1813;-37
2024/01/05 04:35:04;;;;;;;;;;;;;;;18.23;65.00;100542.31;7396841;19;1843;-37
2024/01/05 04:37:32;;;;;;;;;;;;;;;18.20;64.60;100539.91;7396482;19;1411;-37
2024/01/05 04:40:01;;;;;;;;;;;;;;;18.09;65.03;100561.44;7397277;19;1243;-37
2024/01/05 04:42:32;;;;;;;;;;;;;;;18.01;65.10;100563.94;7396329;19;1639;-37
2024/01/05 04:45:00;;;;;;;;;;;;;;;18.23;64.82;100570.91;7396606;19;1214;-37
2024/01/05 04:47:28;;;;;;;;;;;;;;;18.53;64.10;100572.69;7396275;19;1493;-37
2024/01/05 04:49:56;;;;;;;;;;;;;;;18.73;63.31;100572.75;7396189;19;1531;-37
2024/01/05 04:52:25;;;;;;;;;;;;;;;18.84;62.73;100545.84;7395232;19;1516;-37
2024/01/05 04:54:53;;;;;;;;;;;;;;;19.16;62.26;100568.84;7395245;19;1875;-37
2024/01/05 04:57:21;;;;;;;;;;;;;;;19.38;61.54;100557.84;7396210;19;1545;-37
2024/01/05 04:59:52;;;;;;;;;;;;;;;19.39;61.62;100559.50;7396170;19;1477;-37
2024/01/05 05:02:21;;;;;;;;;;;;;;;19.00;62.67;100562.22;7395227;19;1571;-37
2024/01/05 05:04:49;;;;;;;;;;;;;;;18.26;61.91;100571.50;7394167;19;1483;-37
2024/01/05 05:07:18;;;;;;;;;;;;;;;18.07;64.45;100587.47;7380667;19;1468;-37
2024/01/05 05:09:46;;;;;;;;;;;;;;;18.18;63.59;100584.69;7391398;19;1966;-37
2024/01/05 05:12:15;;;;;;;;;;;;;;;18.55;62.68;100589.47;7394001;19;1346;-37
2024/01/05 05:14:43;;;;;;;;;;;;;;;18.67;62.33;100574.13;7391357;19;1476;-37
2024/01/05 05:17:14;;;;;;;;;;;;;;;18.50;62.77;100586.34;7393017;19;1834;-37
2024/01/05 05:19:43;;;;;;;;;;;;;;;18.33;63.25;100605.75;7391787;19;1118;-37
2024/01/05 05:22:11;;;;;;;;;;;;;;;18.21;63.45;100602.31;7391892;19;1755;-37
2024/01/05 05:24:39;;;;;;;;;;;;;;;18.31;63.44;100597.00;7390305;19;1595;-37
2024/01/05 05:27:08;;;;;;;;;;;;;;;18.32;63.42;100596.84;7389843;19;1565;-37
2024/01/05 05:29:36;;;;;;;;;;;;;;;18.31;63.77;100594.34;7392384;19;1536;-37
2024/01/05 05:32:04;;;;;;;;;;;;;;;18.13;64.47;100594.13;7389778;19;1481;-37
2024/01/05 05:34:35;;;;;;;;;;;;;;;18.19;64.54;100610.47;7390679;19;1442;-37
2024/01/05 05:37:04;;;;;;;;;;;;;;;18.26;64.26;100608.09;7391798;19;1853;-37
2024/01/05 05:39:32;;;;;;;;;;;;;;;18.35;64.41;100609.16;7393250;19;1949;-37
2024/01/05 05:42:00;;;;;;;;;;;;;;;18.21;64.39;100627.25;7392006;19;1838;-37
2024/01/05 05:44:29;;;;;;;;;;;;;;;18.09;64.94;100623.81;7392344;19;1892;-37
2024/01/05 05:46:57;;;;;;;;;;;;;;;18.35;64.50;100651.97;7390342;19;1419;-37
2024/01/05 05:49:25;;;;;;;;;;;;;;;18.60;63.74;100659.56;7391685;19;1227;-37
2024/01/05 05:51:56;;;;;;;;;;;;;;;19.01;62.66;100663.06;7389297;19;1501;-37
2024/01/05 05:54:24;;;;;;;;;;;;;;;19.15;62.29;100674.38;7393355;19;1299;-37
2024/01/05 05:56:53;;;;;;;;;;;;;;;19.21;61.41;100685.38;7391739;19;1851;-37
2024/01/05 05:59:21;;;;;;;;;;;;;;;19.21;61.54;100673.81;7393149;19;1547;-37
2024/01/05 06:01:49;;;;;;;;;;;;;;;19.28;62.00;100688.38;7393694;19;1230;-37
2024/01/05 06:04:18;;;;;;;;;;;;;;;19.35;61.59;100686.81;7391282;19;1830;-37
2024/01/05 06:06:46;;;;;;;;;;;;;;;19.29;61.68;100687.38;7391107;19;1892;-37
2024/01/05 06:09:17;;;;;;;;;;;;;;;19.37;62.05;100689.38;7377801;19;1247;-37
2024/01/05 06:11:45;;;;;;;;;;;;;;;19.27;61.84;100694.72;7393716;19;1398;-37
2024/01/05 06:14:14;;;;;;;;;;;;;;;19.36;61.20;100704.63;7394242;19;1227;-37
2024/01/05 06:16:42;;;;;;;;;;;;;;;19.46;60.99;100705.47;7388463;19;1896;-37
2024/01/05 06:19:10;;;;;;;;;;;;;;;19.51;60.64;100706.88;7390277;19;1846;-37
2024/01/05 06:21:39;;;;;;;;;;;;;;;19.24;61.45;100705.72;7391925;19;1545;-37
2024/01/05 06:24:07;;;;;;;;;;;;;;;18.86;62.40;100708.16;7390950;19;1252;-37
2024/01/05 06:26:38;;;;;;;;;;;;;;;18.56;63.17;100711.69;7388473;19;1369;-37
2024/01/05 06:29:06;;;;;;;;;;;;;;;18.50;63.21;100717.56;7385745;19;1529;-37
2024/01/05 06:31:35;;;;;;;;;;;;;;;19.00;61.63;100704.25;7388240;19;1367;-37
2024/01/05 06:34:03;;;;;;;;;;;;;;;19.17;61.55;100713.47;7388210;19;1564;-37
2024/01/05 06:36:31;;;;;;;;;;;;;;;19.16;61.67;100713.59;7388908;19;1837;-37
2024/01/05 06:39:00;;;;;;;;;;;;;;;18.94;62.01;100704.81;7392181;19;1229;-37
2024/01/05 06:41:28;;;;;;;;;;;;;;;18.75;62.88;100724.31;7388619;19;1628;-37
2024/01/05 06:43:59;;;;;;;;;;;;;;;18.52;63.46;100704.88;7384192;19;2458;-37
2024/01/05 06:46:27;;;;;;;;;;;;;;;18.64;63.24;100719.03;7386804;19;1149;-38
2024/01/05 06:48:56;;;;;;;;;;;;;;;19.05;62.39;100736.00;7388663;19;1336;-38
2024/01/05 06:51:29;;;;;;;;;;;;;;;19.32;61.43;100735.38;7389880;19;1525;-38
2024/01/05 06:53:58;;;;;;;;;;;;;;;19.11;61.90;100721.22;7386529;19;1552;-38
2024/01/05 06:56:28;;;;;;;;;;;;;;;18.81;62.52;100736.34;7385712;19;1850;-38
2024/01/05 06:58:58;;;;;;;;;;;;;;;18.55;63.40;100725.22;7388763;19;2609;-37
2024/01/05 07:01:27;;;;;;;;;;;;;;;18.76;62.88;100744.75;7387052;19;1561;-38
2024/01/05 07:03:55;;;;;;;;;;;;;;;19.31;61.48;100732.81;7384881;19;1489;-38
2024/01/05 07:06:23;;;;;;;;;;;;;;;19.28;61.42;100733.97;7381702;19;1215;-38
2024/01/05 07:08:52;;;;;;;;;;;;;;;19.30;61.48;100753.44;7368661;19;1801;-38
2024/01/05 07:11:23;;;;;;;;;;;;;;;19.04;62.07;100766.47;7388347;19;1243;-38
2024/01/05 07:13:52;;;;;;;;;;;;;;;18.74;62.66;100761.94;7386805;19;1575;-38
2024/01/05 07:16:23;;;;;;;;;;;;;;;18.55;63.19;100758.19;7388961;19;1853;-38
2024/01/05 07:18:53;;;;;;;;;;;;;;;18.69;63.23;100759.66;7391690;19;1424;-38
2024/01/05 07:21:21;;;;;;;;;;;;;;;18.95;62.51;100741.31;7388514;19;1105;-39
2024/01/05 07:23:50;;;;;;;;;;;;;;;19.15;61.98;100741.41;7390634;19;1846;-40
2024/01/05 07:26:22;;;;;;;;;;;;;;;19.06;62.23;100745.75;7393363;19;1205;-38
2024/01/05 07:28:50;;;;;;;;;;;;;;;18.82;62.89;100743.38;7393560;19;1213;-37
2024/01/05 07:31:26;;;;;;;;;;;;;;;18.62;63.23;100758.50;7393828;19;1565;-38
2024/01/05 07:33:54;;;;;;;;;;;;;;;18.73;62.96;100754.91;7391783;19;1144;-38
2024/01/05 07:36:22;;;;;;;;;;;;;;;19.06;62.26;100751.13;7389452;19;1858;-38
2024/01/05 07:38:51;;;;;;;;;;;;;;;19.43;61.42;100754.00;7391802;19;1117;-40
2024/01/05 07:41:20;;;;;;;;;;;;;;;19.30;61.43;100769.53;7388128;19;1497;-37
2024/01/05 07:43:48;;;;;;;;;;;;;;;18.98;62.25;100785.75;7388663;19;1227;-38
2024/01/05 07:46:17;;;;;;;;;;;;;;;18.74;62.84;100780.69;7390068;19;1477;-38
2024/01/05 07:48:48;;;;;;;;;;;;;;;18.63;62.96;100790.50;7388957;19;1328;-38
2024/01/05 07:51:21;;;;;;;;;;;;;;;18.85;62.59;100769.91;7389904;19;1589;-38
2024/01/05 07:53:49;;;;;;;;;;;;;;;19.29;61.66;100794.63;7390884;19;1135;-38
2024/01/05 07:56:18;;;;;;;;;;;;;;;19.33;61.39;100773.75;7397467;19;1852;-38
2024/01/05 07:58:46;;;;;;;;;;;;;;;19.12;62.12;100796.13;7398362;19;1797;-38
2024/01/05 08:01:19;;;;;;;;;;;;;;;18.88;62.54;100777.72;7398600;19;1542;-38
2024/01/05 08:03:50;;;;;;;;;;;;;;;18.74;63.05;100784.22;7396954;19;1469;-38
2024/01/05 08:06:19;;;;;;;;;;;;;;;19.03;62.72;100789.72;7396360;19;1497;-38
2024/01/05 08:08:47;;;;;;;;;;;;;;;19.35;61.73;100786.03;7379812;19;1485;-38
2024/01/05 08:11:16;;;;;;;;;;;;;;;19.45;61.47;100789.56;7393835;19;1397;-38
2024/01/05 08:13:45;;;;;;;;;;;;;;;19.23;61.89;100779.09;7398607;19;1296;-37
2024/01/05 08:16:13;;;;;;;;;;;;;;;19.05;62.52;100786.94;7395963;19;1860;-38
2024/01/05 08:18:42;;;;;;;;;;;;;;;18.87;63.08;100770.63;7394843;19;1473;-38
2024/01/05 08:21:13;;;;;;;;;;;;;;;19.09;62.53;100783.00;7394772;19;1611;-38
2024/01/05 08:23:42;;;;;;;;;;;;;;;19.52;61.94;100795.25;7395079;19;1302;-38
2024/01/05 08:26:10;;;;;;;;;;;;;;;19.63;62.18;100791.59;7396832;19;1611;-38
2024/01/05 08:28:39;;;;;;;;;;;;;;;19.32;62.10;100783.63;7389174;19;1381;-48
2024/01/05 08:31:07;;;;;;;;;;;;;;;19.06;62.87;100778.75;7396100;19;1604;-48
2024/01/05 08:33:35;;;;;;;;;;;;;;;18.97;64.40;100779.56;7393974;19;1595;-47
2024/01/05 08:36:04;;;;;;;;;;;;;;;19.25;64.43;100790.53;7394449;19;1873;-48
2024/01/05 08:38:34;;;;;;;;;;;;;;;19.59;63.94;100784.81;7395371;19;1118;-48
2024/01/05 08:41:03;;;;;;;;;;;;;;;19.63;62.95;100780.84;7391262;19;1521;-49
2024/01/05 08:43:31;;;;;;;;;;;;;;;19.36;63.86;100792.22;7393562;19;1485;-48
2024/01/05 08:46:00;;;;;;;;;;;;;;;19.15;64.08;100786.97;7391800;19;1197;-48
2024/01/05 08:48:29;;;;;;;;;;;;;;;18.96;64.86;100793.94;7392055;19;1279;-48
2024/01/05 08:50:57;;;;;;;;;;;;;;;19.06;64.47;100783.28;7393438;19;1469;-46
2024/01/05 08:53:25;;;;;;;;;;;;;;;19.52;63.41;100789.03;7391345;19;1268;-47
2024/01/05 08:55:56;;;;;;;;;;;;;;;19.61;63.46;100777.47;7393790;19;1837;-47
2024/01/05 08:58:26;;;;;;;;;;;;;;;19.37;63.36;100781.38;7389284;19;1866;-46
2024/01/05 09:00:54;;;;;;;;;;;;;;;19.21;64.03;100797.97;7392621;19;1801;-47
2024/01/05 09:03:22;;;;;;;;;;;;;;;19.00;64.41;100798.06;7391424;19;1355;-46
2024/01/05 09:05:51;;;;;;;;;;;;;;;19.07;64.20;100799.19;7390309;19;1410;-46
2024/01/05 09:08:19;;;;;;;;;;;;;;;19.30;63.43;100757.94;7391521;19;1437;-46
2024/01/05 09:10:48;;;;;;;;;;;;;;;19.78;62.62;100784.03;7381050;19;1442;-46
2024/01/05 09:13:19;;;;;;;;;;;;;;;19.55;63.12;100794.13;7391982;19;1231;-46
2024/01/05 09:15:47;;;;;;;;;;;;;;;19.31;63.58;100797.16;7393722;19;1751;-47
2024/01/05 09:18:15;;;;;;;;;;;;;;;19.11;64.20;100801.63;7391510;19;1851;-46
2024/01/05 09:20:43;;;;;;;;;;;;;;;19.00;64.50;100795.38;7392733;19;1837;-47
2024/01/05 09:23:13;;;;;;;;;;;;;;;19.42;63.46;100808.63;7393471;19;1771;-47
2024/01/05 09:25:41;;;;;;;;;;;;;;;19.76;62.42;100797.56;7392702;19;1711;-47
2024/01/05 09:28:09;;;;;;;;;;;;;;;19.63;62.53;100797.78;7392264;19;1564;-47
2024/01/05 09:30:40;;;;;;;;;;;;;;;19.38;63.03;100799.19;7393988;19;1243;-47
2024/01/05 09:33:08;;;;;;;;;;;;;;;19.16;63.46;100802.03;7392760;19;1478;-46
2024/01/05 09:35:37;;;;;;;;;;;;;;;19.01;64.10;100799.75;7394209;19;1556;-47
2024/01/05 09:38:05;;;;;;;;;;;;;;;19.22;63.41;100794.31;7389389;19;1849;-46
2024/01/05 09:40:34;;;;;;;;;;;;;;;19.73;62.32;100797.84;7391340;19;1481;-47
2024/01/05 09:43:03;;;;;;;;;;;;;;;19.64;62.23;100788.78;7391952;19;1715;-47
2024/01/05 09:45:31;;;;;;;;;;;;;;;19.45;62.75;100802.97;7392837;19;1583;-47
2024/01/05 09:48:03;;;;;;;;;;;;;;;19.19;63.34;100789.22;7393076;19;1772;-47
2024/01/05 09:50:31;;;;;;;;;;;;;;;19.04;63.65;100788.75;7391807;19;1813;-47
2024/01/05 09:53:00;;;;;;;;;;;;;;;19.24;63.51;100781.63;7393196;19;1836;-46
2024/01/05 09:55:28;;;;;;;;;;;;;;;19.51;62.66;100772.09;7386460;19;1466;-46
2024/01/05 09:57:57;;;;;;;;;;;;;;;19.35;63.01;100777.97;7372665;19;1852;-47
2024/01/05 10:00:27;;;;;;;;;;;;;;;19.15;63.51;100766.34;7384088;19;1366;-47
2024/01/05 10:02:58;;;;;;;;;;;;;;;19.03;63.36;100781.69;7388298;19;1428;-47
2024/01/05 10:05:30;;;;;;;;;;;;;;;18.90;63.85;100770.38;7383232;19;1437;-47
2024/01/05 10:07:59;;;;;;;;;;;;;;;19.18;62.49;100754.50;7383840;19;1435;-47
2024/01/05 10:10:42;;;;;;;;;;;;;;;19.70;61.50;100765.91;7371798;19;1576;-47
2024/01/05 10:13:10;;;;;;;;;;;;;;;19.84;61.22;100767.38;7390201;19;1006;-47
2024/01/05 10:15:53;;;;;;;;;;;;;;;19.61;61.60;100764.06;7389313;19;1533;-47
2024/01/05 10:18:22;;;;;;;;;;;;;;;19.36;62.04;100758.25;7387822;19;1869;-47
2024/01/05 10:20:53;;;;;;;;;;;;;;;19.36;61.84;100747.50;7389260;19;1832;-47
2024/01/05 10:23:21;;;;;;;;;;;;;;;19.64;61.17;100750.38;7390289;19;1577;-46
2024/01/05 10:25:51;;;;;;;;;;;;;;;19.88;60.78;100739.25;7392448;19;1526;-47
2024/01/05 10:28:23;;;;;;;;;;;;;;;19.65;61.22;100750.22;7393339;19;1310;-47
2024/01/05 10:30:52;;;;;;;;;;;;;;;19.44;61.21;100749.50;7393161;19;1535;-47
2024/01/05 10:33:20;;;;;;;;;;;;;;;19.34;61.69;100754.84;7391335;19;1336;-46
2024/01/05 10:35:49;;;;;;;;;;;;;;;19.55;61.02;100745.84;7393173;19;1113;-47
2024/01/05 10:38:20;;;;;;;;;;;;;;;19.81;60.59;100744.31;7392374;19;1917;-46
2024/01/05 10:40:48;;;;;;;;;;;;;;;19.57;60.87;100735.81;7390155;19;1788;-47
2024/01/05 10:43:18;;;;;;;;;;;;;;;19.40;61.40;100738.22;7393803;19;1586;-46
2024/01/05 10:45:47;;;;;;;;;;;;;;;19.36;61.17;100735.91;7393810;19;1058;-46
2024/01/05 10:48:16;;;;;;;;;;;;;;;19.68;60.45;100741.06;7391862;19;1827;-47
2024/01/05 10:50:45;;;;;;;;;;;;;;;19.80;60.21;100739.13;7391540;19;1568;-46
2024/01/05 10:53:14;;;;;;;;;;;;;;;19.57;60.53;100743.88;7393537;19;1518;-47
2024/01/05 10:55:48;;;;;;;;;;;;;;;19.36;60.97;100731.44;7392001;19;1390;-47
2024/01/05 10:58:17;;;;;;;;;;;;;;;19.38;60.83;100734.81;7390995;19;1864;-47
2024/01/05 11:00:47;;;;;;;;;;;;;;;19.66;60.29;100740.34;7392259;19;1592;-47
2024/01/05 11:03:16;;;;;;;;;;;;;;;19.62;60.12;100737.09;7391356;19;1542;-47
2024/01/05 11:05:46;;;;;;;;;;;;;;;19.43;60.84;100727.19;7392094;19;1627;-47
2024/01/05 11:08:20;;;;;;;;;;;;;;;19.24;61.08;100721.81;7391848;19;1562;-47
2024/01/05 11:10:56;;;;;;;;;;;;;;;19.38;60.51;100729.44;7376570;19;1557;-47
2024/01/05 11:13:44;;;;;;;;;;;;;;;19.70;59.93;100728.34;7393111;19;1293;-47
2024/01/05 11:16:21;;;;;;;;;;;;;;;19.52;60.40;100709.44;7390655;19;1675;-47
2024/01/05 11:18:55;;;;;;;;;;;;;;;19.26;60.58;100709.13;7378508;19;1865;-47
2024/01/05 11:21:26;;;;;;;;;;;;;;;19.17;61.04;100715.31;7386948;19;1397;-47
2024/01/05 11:23:55;;;;;;;;;;;;;;;19.10;61.40;100711.47;7386799;19;1516;-46
2024/01/05 11:26:36;;;;;;;;;;;;;;;18.99;61.58;100707.91;7388905;19;1771;-47
2024/01/05 11:29:05;;;;;;;;;;;;;;;18.98;61.96;100713.41;7395297;19;1576;-51
2024/01/05 11:31:48;;;;;;;;;;;;;;;19.44;60.34;100706.59;7393378;19;1473;-46
2024/01/05 11:34:31;;;;;;;;;;;;;;;19.44;60.71;100710.13;7396680;19;1287;-46
2024/01/05 11:37:00;;;;;;;;;;;;;;;19.21;60.88;100701.47;7392906;19;1821;-47
2024/01/05 11:39:43;;;;;;;;;;;;;;;19.11;61.41;100710.50;7395436;19;1144;-46
2024/01/05 11:42:29;;;;;;;;;;;;;;;19.03;61.53;100713.84;7393903;19;1427;-46
2024/01/05 11:44:57;;;;;;;;;;;;;;;18.98;61.94;100716.94;7391728;19;1354;-48
2024/01/05 11:47:40;;;;;;;;;;;;;;;18.93;62.05;100705.78;7395097;19;1672;-47
2024/01/05 11:50:24;;;;;;;;;;;;;;;19.21;61.21;100714.03;7397046;19;1649;-47
2024/01/05 11:53:07;;;;;;;;;;;;;;;19.47;60.55;100717.88;7398020;19;1934;-46
2024/01/05 11:55:40;;;;;;;;;;;;;;;19.25;61.26;100712.78;7398276;19;1441;-47
2024/01/05 11:58:11;;;;;;;;;;;;;;;19.15;61.48;100714.59;7396677;19;1830;-46
2024/01/05 12:00:42;;;;;;;;;;;;;;;19.01;61.63;100697.91;7397459;19;1480;-47
2024/01/05 12:03:11;;;;;;;;;;;;;;;18.95;61.98;100722.56;7397764;19;1750;-47
2024/01/05 12:05:39;;;;;;;;;;;;;;;18.89;61.96;100707.03;7393710;19;1472;-47
2024/01/05 12:08:08;;;;;;;;;;;;;;;19.04;61.77;100708.38;7396380;19;1390;-47
2024/01/05 12:10:36;;;;;;;;;;;;;;;19.42;61.07;100714.78;7380008;19;1836;-47
2024/01/05 12:13:05;;;;;;;;;;;;;;;19.37;60.98;100717.00;7399596;19;1140;-47
2024/01/05 12:15:36;;;;;;;;;;;;;;;19.19;61.47;100718.69;7397554;19;1536;-47
2024/01/05 12:18:07;;;;;;;;;;;;;;;19.02;61.69;100717.50;7395167;19;1860;-47
2024/01/05 12:20:36;;;;;;;;;;;;;;;18.94;62.05;100715.53;7395988;19;1489;-47
2024/01/05 12:23:04;;;;;;;;;;;;;;;18.81;62.20;100715.75;7397069;19;1562;-48
2024/01/05 12:25:35;;;;;;;;;;;;;;;18.74;62.27;100727.97;7396848;19;1569;-47
2024/01/05 12:28:04;;;;;;;;;;;;;;;18.68;61.75;100756.16;7398009;19;1608;-47
2024/01/05 12:30:33;;;;;;;;;;;;;;;18.67;60.57;100710.75;7398264;19;1070;-47
2024/01/05 12:33:04;;;;;;;;;;;;;;;18.71;60.09;100725.56;7398522;19;1207;-47
2024/01/05 12:35:32;;;;;;;;;;;;;;;18.60;60.95;100726.50;7397346;19;1854;-47
2024/01/05 12:38:01;;;;;;;;;;;;;;;18.60;62.84;100713.13;7396067;19;1843;-47
2024/01/05 12:40:29;;;;;;;;;;;;;;;18.65;63.77;100732.28;7393744;19;1232;-48
2024/01/05 12:42:57;;;;;;;;;;;;;;;18.59;61.50;100719.44;7396341;19;1488;-46
2024/01/05 12:45:26;;;;;;;;;;;;;;;18.51;62.64;100724.63;7396735;19;1474;-47
2024/01/05 12:47:54;;;;;;;;;;;;;;;18.55;62.78;100722.53;7396793;19;1873;-46
2024/01/05 12:50:30;;;;;;;;;;;;;;;18.60;62.43;100736.34;7397437;19;1758;-47
2024/01/05 12:52:59;;;;;;;;;;;;;;;18.54;61.81;100727.00;7398063;19;1754;-47
2024/01/05 12:55:31;;;;;;;;;;;;;;;18.47;60.38;100733.91;7395825;19;1410;-47
2024/01/05 12:58:02;;;;;;;;;;;;;;;18.46;60.44;100733.06;7395128;19;1845;-46
2024/01/05 13:00:31;;;;;;;;;;;;;;;18.57;60.28;100740.16;7393234;19;1751;-46